Time;durP1;ratioP1;P1;durP2;ratioP2;P2;SDS_P1;SDS_P2;PMS_P1;PMS_P2;Temp;Humidity;BMP_temperature;BMP_pressure;BME280_temperature;BME280_humidity;BME280_pressure;Samples;Min_cycle;Max_cycle;Signal;HPM_P1;HPM_P2
2022/08/24 00:00:33;;;;;;;7.80;3.17;;;18.50;94.20;;;;;;5089407;28;20099;-54
2022/08/24 00:02:59;;;;;;;9.85;2.95;;;18.50;94.40;;;;;;5087913;28;20069;-54
2022/08/24 00:05:25;;;;;;;7.03;3.30;;;18.40;94.90;;;;;;5088626;28;20024;-54
2022/08/24 00:07:50;;;;;;;4.93;3.35;;;18.40;95.20;;;;;;5089473;28;20032;-53
2022/08/24 00:10:17;;;;;;;5.35;3.35;;;18.40;95.30;;;;;;5089367;28;20028;-53
2022/08/24 00:12:43;;;;;;;8.93;3.03;;;18.40;96.20;;;;;;5088687;28;20153;-54
2022/08/24 00:15:11;;;;;;;10.68;3.20;;;18.30;96.90;;;;;;5089193;28;20103;-53
2022/08/24 00:17:37;;;;;;;4.05;3.05;;;18.30;97.10;;;;;;5088638;28;20597;-53
2022/08/24 00:20:04;;;;;;;6.10;3.15;;;18.20;97.60;;;;;;5080913;28;20111;-53
2022/08/24 00:22:30;;;;;;;7.63;3.13;;;18.20;98.10;;;;;;5088604;28;20465;-53
2022/08/24 00:24:55;;;;;;;4.78;3.10;;;18.10;98.50;;;;;;5089223;28;20024;-53
2022/08/24 00:27:23;;;;;;;6.15;3.20;;;18.10;99.40;;;;;;5087905;28;20020;-54
2022/08/24 00:29:48;;;;;;;6.47;3.50;;;18.10;99.90;;;;;;5089213;28;20067;-54
2022/08/24 00:32:14;;;;;;;4.50;2.90;;;18.00;99.90;;;;;;5088358;28;20027;-53
2022/08/24 00:34:39;;;;;;;4.07;2.92;;;18.00;99.90;;;;;;5087702;28;20024;-54
2022/08/24 00:37:04;;;;;;;7.97;3.10;;;18.00;99.90;;;;;;5089026;28;20115;-54
2022/08/24 00:39:30;;;;;;;5.75;3.25;;;18.00;99.90;;;;;;5088953;28;20494;-53
2022/08/24 00:41:56;;;;;;;5.07;3.72;;;17.90;99.90;;;;;;5088188;28;20518;-53
2022/08/24 00:44:22;;;;;;;4.20;3.30;;;17.90;99.90;;;;;;5088811;28;20028;-53
2022/08/24 00:46:57;;;;;;;5.18;3.13;;;17.90;99.90;;;;;;5089158;28;20099;-54
2022/08/24 00:49:42;;;;;;;6.03;3.08;;;17.90;99.90;;;;;;5078882;28;20031;-54
2022/08/24 00:52:14;;;;;;;10.75;3.35;;;17.80;99.90;;;;;;5088378;28;20058;-54
2022/08/24 00:54:45;;;;;;;4.18;3.13;;;17.80;99.90;;;;;;5089278;28;20073;-54
2022/08/24 00:57:13;;;;;;;4.20;3.40;;;17.80;99.90;;;;;;5088620;28;20531;-54
2022/08/24 00:59:45;;;;;;;5.50;3.38;;;17.80;99.90;;;;;;5088812;28;20467;-54
2022/08/24 01:02:16;;;;;;;5.68;3.05;;;17.80;99.90;;;;;;5087963;28;20089;-54
2022/08/24 01:04:53;;;;;;;4.28;3.42;;;17.80;99.90;;;;;;5088662;28;20432;-53
2022/08/24 01:07:21;;;;;;;4.60;2.97;;;17.70;99.90;;;;;;5088286;28;20402;-54
2022/08/24 01:09:48;;;;;;;6.07;3.35;;;17.80;99.90;;;;;;5087226;28;20017;-53
2022/08/24 01:12:15;;;;;;;7.82;3.90;;;17.70;99.90;;;;;;5087885;28;20024;-53
2022/08/24 01:14:41;;;;;;;5.57;3.67;;;17.70;99.90;;;;;;5088344;28;20028;-53
2022/08/24 01:19:56;;;;;;;4.72;2.80;;;17.60;99.90;;;;;;5084310;28;20050;-53
2022/08/24 01:22:46;;;;;;;6.28;3.45;;;17.60;99.90;;;;;;5092088;28;20107;-53
2022/08/24 01:25:12;;;;;;;7.07;3.20;;;17.60;99.90;;;;;;5091415;28;20020;-53
2022/08/24 01:27:40;;;;;;;4.95;3.53;;;17.60;99.90;;;;;;5092688;28;20413;-53
2022/08/24 01:30:08;;;;;;;6.47;3.22;;;17.50;99.90;;;;;;5091230;28;20023;-53
2022/08/24 01:32:34;;;;;;;6.18;3.22;;;17.40;99.90;;;;;;5091863;28;20032;-53
2022/08/24 01:34:59;;;;;;;8.95;3.45;;;17.40;99.90;;;;;;5092554;28;20036;-53
2022/08/24 01:37:25;;;;;;;5.00;2.97;;;17.40;99.90;;;;;;5091950;28;20475;-53
2022/08/24 01:39:54;;;;;;;4.53;3.50;;;17.30;99.90;;;;;;5092463;28;20066;-53
2022/08/24 01:42:20;;;;;;;6.93;3.20;;;17.20;99.90;;;;;;5091594;28;20031;-53
2022/08/24 01:44:46;;;;;;;4.25;3.55;;;17.20;99.90;;;;;;5092256;28;20054;-53
2022/08/24 01:47:13;;;;;;;12.73;4.20;;;17.10;99.90;;;;;;5091875;28;20028;-53
2022/08/24 01:49:45;;;;;;;4.65;3.38;;;17.10;99.90;;;;;;5083345;28;20016;-53
2022/08/24 01:52:16;;;;;;;3.45;3.15;;;17.00;99.90;;;;;;5091541;28;20028;-53
2022/08/24 01:54:42;;;;;;;4.90;3.42;;;17.00;99.90;;;;;;5092422;28;20016;-53
2022/08/24 01:57:08;;;;;;;4.93;3.53;;;17.00;99.90;;;;;;5092193;28;20484;-53
2022/08/24 01:59:34;;;;;;;4.63;3.60;;;17.00;99.90;;;;;;5091905;28;20008;-53
2022/08/24 02:02:09;;;;;;;6.47;4.00;;;16.90;99.90;;;;;;5091090;28;20035;-53
2022/08/24 02:04:35;;;;;;;6.72;3.58;;;16.90;99.90;;;;;;5092017;28;20060;-53
2022/08/24 02:07:01;;;;;;;7.03;3.67;;;16.90;99.90;;;;;;5091499;28;20051;-53
2022/08/24 02:09:27;;;;;;;6.32;3.65;;;16.90;99.90;;;;;;5091829;28;20125;-53
2022/08/24 02:11:53;;;;;;;3.60;3.20;;;16.90;99.90;;;;;;5090893;28;20016;-54
2022/08/24 02:14:19;;;;;;;6.78;3.80;;;16.80;99.90;;;;;;5091726;28;20142;-53
2022/08/24 02:16:45;;;;;;;6.70;3.45;;;16.80;99.90;;;;;;5091616;28;20110;-53
2022/08/24 02:19:11;;;;;;;6.43;3.50;;;16.80;99.90;;;;;;5082805;28;20590;-53
2022/08/24 02:21:37;;;;;;;4.20;3.78;;;16.80;99.90;;;;;;5091065;28;20036;-53
2022/08/24 02:24:03;;;;;;;5.60;3.53;;;16.80;99.90;;;;;;5091772;28;20499;-53
2022/08/24 02:26:29;;;;;;;7.10;3.67;;;16.70;99.90;;;;;;5091484;28;20491;-54
2022/08/24 02:28:54;;;;;;;8.40;3.75;;;16.70;99.90;;;;;;5090652;28;20028;-53
2022/08/24 02:31:20;;;;;;;5.28;4.10;;;16.70;99.90;;;;;;5091193;28;20114;-54
2022/08/24 02:33:45;;;;;;;5.57;3.90;;;16.70;99.90;;;;;;5091404;28;20028;-53
2022/08/24 02:36:13;;;;;;;7.50;4.00;;;16.60;99.90;;;;;;5091496;28;20219;-53
2022/08/24 02:38:39;;;;;;;6.43;3.90;;;16.60;99.90;;;;;;5091307;28;20093;-53
2022/08/24 02:41:04;;;;;;;5.45;3.40;;;16.60;99.90;;;;;;5090727;28;20019;-53
2022/08/24 02:43:30;;;;;;;5.63;3.22;;;16.50;99.90;;;;;;5091152;28;20028;-53
2022/08/24 02:45:56;;;;;;;8.48;3.42;;;16.50;99.90;;;;;;5091420;28;20020;-54
2022/08/24 02:48:22;;;;;;;6.32;3.40;;;16.50;99.90;;;;;;5089206;28;20042;-54
2022/08/24 02:50:50;;;;;;;7.13;4.00;;;16.40;99.90;;;;;;5083936;28;20356;-54
2022/08/24 02:53:17;;;;;;;7.85;4.25;;;16.40;99.90;;;;;;5090804;28;20028;-54
2022/08/24 02:55:42;;;;;;;8.48;4.35;;;16.50;99.90;;;;;;5089607;28;20028;-54
2022/08/24 02:58:09;;;;;;;4.55;3.78;;;16.50;99.90;;;;;;5091096;28;20039;-54
2022/08/24 03:00:37;;;;;;;6.97;3.83;;;16.50;99.90;;;;;;5090324;28;20122;-54
2022/08/24 03:03:02;;;;;;;5.50;3.78;;;16.40;99.90;;;;;;5090704;28;20028;-54
2022/08/24 03:05:28;;;;;;;9.10;3.80;;;16.40;99.90;;;;;;5090925;28;20395;-55
2022/08/24 03:07:54;;;;;;;8.63;4.40;;;16.40;99.90;;;;;;5090519;28;20059;-54
2022/08/24 03:10:20;;;;;;;8.95;4.25;;;16.30;99.90;;;;;;5090569;28;20106;-55
2022/08/24 03:12:46;;;;;;;5.43;3.70;;;16.30;99.90;;;;;;5089996;28;20028;-54
2022/08/24 03:15:13;;;;;;;6.65;4.57;;;16.30;99.90;;;;;;5090597;28;20028;-55
2022/08/24 03:17:39;;;;;;;6.63;4.50;;;16.20;99.90;;;;;;5089999;28;20040;-55
2022/08/24 03:20:09;;;;;;;5.70;4.10;;;16.20;99.90;;;;;;5080740;28;20024;-54
2022/08/24 03:22:35;;;;;;;;;;;16.20;99.90;;;;;;5090418;28;20028;-54
2022/08/24 03:25:01;;;;;;;6.13;3.97;;;16.10;99.90;;;;;;5090411;28;19938;-54
2022/08/24 03:27:26;;;;;;;4.45;3.65;;;16.10;99.90;;;;;;5090362;28;20035;-55
2022/08/24 03:29:52;;;;;;;8.10;4.00;;;16.10;99.90;;;;;;5090305;28;20432;-54
2022/08/24 03:32:18;;;;;;;6.05;3.75;;;16.00;99.90;;;;;;5089843;28;20028;-54
2022/08/24 03:34:43;;;;;;;6.10;4.70;;;15.90;99.90;;;;;;5090213;28;20627;-54
2022/08/24 03:37:10;;;;;;;6.03;4.00;;;15.90;99.90;;;;;;5090005;28;20024;-54
2022/08/24 03:39:35;;;;;;;6.43;3.90;;;15.80;99.90;;;;;;5090194;28;20035;-54
2022/08/24 03:42:01;;;;;;;5.65;3.70;;;15.80;99.90;;;;;;5089137;28;20016;-54
2022/08/24 03:44:26;;;;;;;8.80;4.75;;;15.80;99.90;;;;;;5090361;28;20029;-55
2022/08/24 03:46:53;;;;;;;10.00;4.47;;;15.80;99.90;;;;;;5089973;28;20028;-53
2022/08/24 03:49:18;;;;;;;10.63;5.38;;;15.80;99.90;;;;;;5081244;28;20466;-54
2022/08/24 03:51:44;;;;;;;10.23;5.22;;;15.90;99.90;;;;;;5088004;28;20132;-53
2022/08/24 03:54:11;;;;;;;8.35;5.07;;;15.90;99.90;;;;;;5089984;28;20048;-53
2022/08/24 03:56:39;;;;;;;6.32;4.53;;;15.80;99.90;;;;;;5089948;28;20020;-53
2022/08/24 03:59:06;;;;;;;7.88;4.72;;;15.90;99.90;;;;;;5090081;28;20028;-53
2022/08/24 04:01:33;;;;;;;7.40;4.90;;;15.80;99.90;;;;;;5089399;28;20032;-55
2022/08/24 04:03:58;;;;;;;7.10;4.50;;;15.90;99.90;;;;;;5089665;28;20028;-55
2022/08/24 04:06:25;;;;;;;5.65;4.00;;;15.80;99.90;;;;;;5089503;28;20032;-53
2022/08/24 04:08:51;;;;;;;11.13;4.53;;;15.80;99.90;;;;;;5089455;28;20012;-53
2022/08/24 04:11:24;;;;;;;6.43;4.35;;;15.80;99.90;;;;;;5088746;28;20475;-53
2022/08/24 04:13:52;;;;;;;6.65;4.53;;;15.80;99.90;;;;;;5089827;28;20036;-53
2022/08/24 04:16:19;;;;;;;4.82;4.00;;;15.80;99.90;;;;;;5089837;28;20020;-55
2022/08/24 04:18:45;;;;;;;8.40;5.35;;;15.80;99.90;;;;;;5084652;28;20395;-53
2022/08/24 04:21:23;;;;;;;10.50;4.70;;;15.80;99.90;;;;;;5086382;28;20141;-53
2022/08/24 04:23:51;;;;;;;7.55;5.22;;;15.80;99.90;;;;;;5089719;28;20172;-53
2022/08/24 04:26:17;;;;;;;9.55;5.38;;;15.80;99.90;;;;;;5089457;28;20026;-53
2022/08/24 04:28:43;;;;;;;9.05;5.20;;;15.80;99.90;;;;;;5089016;28;20039;-53
2022/08/24 04:31:09;;;;;;;8.95;5.78;;;15.80;99.90;;;;;;5088622;28;20025;-53
2022/08/24 04:33:35;;;;;;;9.77;5.50;;;15.80;99.90;;;;;;5088998;28;20093;-53
2022/08/24 04:36:01;;;;;;;5.85;4.88;;;15.80;99.90;;;;;;5089048;28;20414;-53
2022/08/24 04:38:28;;;;;;;8.45;5.18;;;15.80;99.90;;;;;;5089192;28;20281;-55
2022/08/24 04:40:54;;;;;;;7.93;6.30;;;15.80;99.90;;;;;;5088432;28;20028;-53
2022/08/24 04:43:19;;;;;;;9.00;5.35;;;15.80;99.90;;;;;;5088663;28;20027;-53
2022/08/24 04:45:47;;;;;;;7.50;5.10;;;15.80;99.90;;;;;;5089468;28;20084;-53
2022/08/24 04:48:14;;;;;;;14.07;6.20;;;15.80;99.90;;;;;;5080739;28;20042;-53
2022/08/24 04:50:42;;;;;;;9.63;5.53;;;15.80;99.90;;;;;;5080464;28;20224;-53
2022/08/24 04:53:09;;;;;;;8.75;5.28;;;15.80;99.90;;;;;;5088392;28;20399;-53
2022/08/24 04:55:45;;;;;;;10.35;5.53;;;15.80;99.90;;;;;;5087405;28;20027;-53
2022/08/24 04:58:13;;;;;;;9.32;5.40;;;15.80;99.90;;;;;;5067577;28;20455;-53
2022/08/24 05:00:39;;;;;;;13.18;5.97;;;15.90;99.90;;;;;;5067840;28;20217;-53
2022/08/24 05:03:04;;;;;;;11.50;5.30;;;15.90;99.90;;;;;;5068408;28;20036;-53
2022/08/24 05:05:30;;;;;;;10.30;6.05;;;15.90;99.90;;;;;;5068594;28;20043;-53
2022/08/24 05:07:56;;;;;;;7.28;4.90;;;15.90;99.90;;;;;;5068429;28;20491;-53
2022/08/24 05:10:21;;;;;;;10.00;5.82;;;15.90;99.90;;;;;;5068475;28;20020;-52
2022/08/24 05:12:47;;;;;;;9.05;5.93;;;15.90;99.90;;;;;;5067514;28;20031;-53
2022/08/24 05:15:12;;;;;;;7.22;5.10;;;15.90;99.90;;;;;;5068501;28;20025;-53
2022/08/24 05:17:41;;;;;;;6.40;5.05;;;16.00;99.90;;;;;;5071860;28;20044;-53
2022/08/24 05:20:10;;;;;;;10.75;5.53;;;16.00;99.90;;;;;;5080232;28;20039;-52
2022/08/24 05:22:36;;;;;;;11.68;5.82;;;16.00;99.90;;;;;;5087998;28;20024;-52
2022/08/24 05:25:03;;;;;;;12.15;5.78;;;16.10;99.90;;;;;;5088641;28;20119;-52
2022/08/24 05:27:29;;;;;;;11.85;6.03;;;16.10;99.90;;;;;;5086931;28;20025;-52
2022/08/24 05:29:54;;;;;;;9.93;5.97;;;16.20;99.90;;;;;;5088423;28;20039;-52
2022/08/24 05:32:20;;;;;;;9.93;6.82;;;16.20;99.90;;;;;;5087872;28;20020;-52
2022/08/24 05:34:47;;;;;;;9.50;6.28;;;16.20;99.90;;;;;;5087131;28;20052;-53
2022/08/24 05:37:12;;;;;;;8.88;5.90;;;16.20;99.90;;;;;;5088378;28;20028;-52
2022/08/24 05:39:38;;;;;;;13.70;6.25;;;16.30;99.90;;;;;;5088042;28;20035;-53
2022/08/24 05:42:04;;;;;;;13.02;7.20;;;16.40;99.90;;;;;;5087539;28;20024;-53
2022/08/24 05:44:30;;;;;;;11.90;6.57;;;16.40;99.90;;;;;;5087158;28;20020;-53
2022/08/24 05:47:00;;;;;;;13.13;7.47;;;16.40;99.90;;;;;;5086575;28;20386;-53
2022/08/24 05:49:26;;;;;;;12.17;6.80;;;16.60;99.90;;;;;;5079792;28;20044;-52
2022/08/24 05:51:52;;;;;;;12.52;7.05;;;16.60;99.90;;;;;;5087059;28;20032;-53
2022/08/24 05:54:18;;;;;;;12.38;5.93;;;16.70;99.90;;;;;;5088361;28;20032;-52
2022/08/24 05:56:44;;;;;;;11.40;6.70;;;16.70;99.90;;;;;;5087547;28;20542;-53
2022/08/24 05:59:10;;;;;;;8.25;5.60;;;16.70;99.90;;;;;;5088155;28;20439;-54
2022/08/24 06:01:37;;;;;;;12.32;6.18;;;16.80;99.90;;;;;;5086955;28;20110;-54
2022/08/24 06:04:03;;;;;;;7.47;5.82;;;16.80;99.90;;;;;;5089246;28;20089;-54
2022/08/24 06:06:30;;;;;;;12.23;6.18;;;16.90;99.90;;;;;;5091990;28;20035;-53
2022/08/24 06:08:58;;;;;;;12.35;5.80;;;17.00;99.90;;;;;;5091407;28;20042;-56
2022/08/24 06:11:25;;;;;;;18.80;7.88;;;17.00;99.90;;;;;;5091321;28;20028;-55
2022/08/24 06:13:53;;;;;;;16.50;7.57;;;17.10;99.90;;;;;;5091142;28;20024;-54
2022/08/24 06:16:19;;;;;;;16.52;7.00;;;17.20;99.90;;;;;;5091910;28;20229;-53
2022/08/24 06:18:45;;;;;;;8.77;6.90;;;17.30;99.90;;;;;;5085738;28;20105;-54
2022/08/24 06:21:14;;;;;;;13.77;6.65;;;17.40;99.90;;;;;;5085922;28;20032;-54
2022/08/24 06:23:42;;;;;;;15.18;7.60;;;17.40;99.90;;;;;;5091216;28;20510;-53
2022/08/24 06:28:55;;;;;;;14.13;6.90;;;17.60;99.90;;;;;;5091197;28;20050;-54
2022/08/24 06:31:23;;;;;;;18.73;6.57;;;17.70;99.90;;;;;;5091312;28;20414;-54
2022/08/24 06:33:48;;;;;;;10.15;6.28;;;17.80;99.90;;;;;;5091428;28;20024;-57
2022/08/24 06:36:14;;;;;;;11.25;6.32;;;17.90;99.90;;;;;;5090855;28;20297;-55
2022/08/24 06:38:40;;;;;;;14.38;7.50;;;18.00;99.90;;;;;;5091003;28;20472;-55
2022/08/24 06:41:06;;;;;;;11.55;6.68;;;18.10;99.90;;;;;;5090395;28;20020;-55
2022/08/24 06:43:32;;;;;;;10.82;7.55;;;18.20;99.90;;;;;;5091190;28;20024;-55
2022/08/24 06:45:58;;;;;;;19.58;8.23;;;18.30;99.90;;;;;;5090485;28;20081;-55
2022/08/24 06:48:24;;;;;;;10.23;7.32;;;18.40;99.90;;;;;;5089380;28;20032;-54
2022/08/24 06:50:51;;;;;;;10.30;8.27;;;18.60;99.90;;;;;;5083266;28;20020;-55
2022/08/24 06:53:16;;;;;;;14.00;7.40;;;18.70;99.90;;;;;;5075045;28;20016;-55
2022/08/24 06:56:08;;;;;;;11.63;8.23;;;18.80;99.90;;;;;;5070413;28;20024;-54
2022/08/24 06:58:35;;;;;;;14.27;8.68;;;19.00;99.90;;;;;;5069577;28;20045;-54
2022/08/24 07:01:12;;;;;;;12.65;8.50;;;19.10;99.90;;;;;;5069767;28;20020;-55
2022/08/24 07:03:38;;;;;;;12.88;7.93;;;19.30;99.90;;;;;;5070257;28;20107;-55
2022/08/24 07:06:04;;;;;;;11.77;7.35;;;19.40;99.90;;;;;;5070500;28;20099;-55
2022/08/24 07:08:30;;;;;;;8.98;6.93;;;19.50;99.90;;;;;;5069747;28;20374;-55
2022/08/24 07:10:56;;;;;;;14.60;7.47;;;19.60;99.90;;;;;;5069876;28;20028;-54
2022/08/24 07:13:22;;;;;;;16.05;7.75;;;19.70;99.90;;;;;;5069112;28;20117;-54
2022/08/24 07:15:50;;;;;;;9.63;7.50;;;19.90;99.90;;;;;;5070000;28;20032;-56
2022/08/24 07:18:17;;;;;;;12.02;7.72;;;20.00;99.90;;;;;;5078203;28;20039;-55
2022/08/24 07:20:43;;;;;;;10.48;7.30;;;20.10;99.90;;;;;;5081723;28;20032;-55
2022/08/24 07:23:11;;;;;;;13.98;7.53;;;20.20;99.90;;;;;;5088895;28;20063;-54
2022/08/24 07:25:38;;;;;;;13.98;6.88;;;20.40;99.90;;;;;;5088904;28;20020;-54
2022/08/24 07:28:04;;;;;;;8.57;6.78;;;20.50;99.90;;;;;;5088657;28;20486;-56
2022/08/24 07:30:30;;;;;;;8.98;7.00;;;20.60;99.90;;;;;;5088380;28;20425;-55
2022/08/24 07:32:56;;;;;;;14.00;7.43;;;20.70;99.90;;;;;;5088351;28;20028;-55
2022/08/24 07:35:22;;;;;;;9.32;7.03;;;20.90;99.90;;;;;;5087383;28;20054;-55
2022/08/24 07:37:49;;;;;;;9.40;6.60;;;21.10;99.90;;;;;;5088464;28;20621;-54
2022/08/24 07:40:15;;;;;;;12.13;6.90;;;21.20;99.90;;;;;;5090080;28;20182;-55
2022/08/24 07:42:41;;;;;;;10.60;6.70;;;21.40;99.90;;;;;;5089736;28;20028;-55
2022/08/24 07:45:07;;;;;;;11.63;7.18;;;21.60;99.90;;;;;;5089926;28;20020;-54
2022/08/24 07:47:32;;;;;;;7.82;6.30;;;21.80;99.90;;;;;;5089544;28;20036;-55
2022/08/24 07:49:58;;;;;;;14.73;6.30;;;22.00;99.90;;;;;;5081470;28;20043;-55
2022/08/24 07:52:24;;;;;;;15.80;6.38;;;22.20;99.90;;;;;;5089339;28;20030;-56
2022/08/24 07:54:49;;;;;;;8.43;5.68;;;22.50;99.90;;;;;;5084869;28;20078;-55
2022/08/24 07:57:15;;;;;;;7.55;5.00;;;22.70;99.90;;;;;;5078424;28;20502;-56
2022/08/24 07:59:40;;;;;;;7.63;5.07;;;23.10;99.90;;;;;;5069328;28;20032;-55
2022/08/24 08:02:08;;;;;;;9.77;4.32;;;23.90;99.90;;;;;;5072707;28;20024;-56
2022/08/24 08:04:33;;;;;;;10.90;4.88;;;25.20;99.00;;;;;;5069880;28;20259;-55
2022/08/24 08:07:06;;;;;;;5.47;3.58;;;26.70;95.90;;;;;;5073407;28;20043;-56
2022/08/24 08:09:32;;;;;;;6.32;3.55;;;28.00;93.40;;;;;;5080889;28;20024;-56
2022/08/24 08:11:58;;;;;;;6.85;3.70;;;29.60;88.20;;;;;;5086562;28;20391;-56
2022/08/24 08:14:23;;;;;;;5.13;3.38;;;30.90;81.20;;;;;;5082887;28;20321;-56
2022/08/24 08:16:49;;;;;;;6.03;3.33;;;31.70;76.60;;;;;;5068600;28;20392;-55
2022/08/24 08:19:15;;;;;;;5.32;3.10;;;32.60;73.00;;;;;;5068622;28;20025;-57
2022/08/24 08:24:29;;;;;;;5.35;2.70;;;34.50;64.80;;;;;;5067982;28;20325;-56
2022/08/24 08:26:56;;;;;;;4.15;2.85;;;34.60;64.30;;;;;;5066269;28;20056;-56
2022/08/24 08:29:23;;;;;;;5.40;2.75;;;35.40;61.50;;;;;;5068551;28;20095;-57
2022/08/24 08:31:48;;;;;;;7.65;3.20;;;36.20;59.10;;;;;;5067783;28;20025;-56
2022/08/24 08:34:15;;;;;;;5.28;2.80;;;36.20;57.90;;;;;;5068259;28;20438;-57
2022/08/24 08:37:00;;;;;;;3.67;2.50;;;36.30;57.50;;;;;;5065438;28;20024;-57
2022/08/24 08:39:26;;;;;;;5.97;2.45;;;37.20;55.10;;;;;;5066391;28;20028;-57
2022/08/24 08:42:29;;;;;;;4.30;2.70;;;38.00;53.70;;;;;;5068103;28;20115;-56
2022/08/24 08:45:08;;;;;;;5.68;2.60;;;38.20;52.50;;;;;;5066616;28;20034;-56
2022/08/24 08:47:50;;;;;;;5.88;3.00;;;38.50;52.40;;;;;;5065968;28;20135;-56
2022/08/24 08:50:41;;;;;;;7.63;2.70;;;38.40;51.90;;;;;;5065077;28;20013;-57
2022/08/24 08:53:34;;;;;;;5.07;2.80;;;38.60;50.40;;;;;;5070848;28;20357;-56
2022/08/24 08:56:29;;;;;;;4.47;2.20;;;39.40;49.30;;;;;;5048345;28;20048;-56
2022/08/24 08:59:24;;;;;;;3.67;2.00;;;39.20;49.50;;;;;;5043556;28;20111;-56
2022/08/24 09:02:14;;;;;;;4.18;2.13;;;40.40;47.60;;;;;;5075443;28;20024;-56
2022/08/24 09:04:51;;;;;;;4.40;2.60;;;40.90;46.70;;;;;;5087995;28;20086;-57
2022/08/24 09:07:35;;;;;;;4.88;1.80;;;41.00;44.40;;;;;;5088781;28;20019;-56
2022/08/24 09:10:11;;;;;;;5.68;1.98;;;40.80;44.60;;;;;;5088509;28;20042;-56
2022/08/24 09:13:10;;;;;;;4.65;1.70;;;40.90;44.20;;;;;;5087927;28;20028;-56
2022/08/24 09:15:55;;;;;;;5.18;2.22;;;41.10;42.70;;;;;;5087879;28;20040;-56
2022/08/24 09:18:20;;;;;;;4.55;2.15;;;41.40;44.30;;;;;;5088465;28;20159;-57
2022/08/24 09:21:05;;;;;;;4.60;2.20;;;41.10;43.90;;;;;;5083816;28;20489;-56
2022/08/24 09:23:49;;;;;;;2.90;1.52;;;41.00;42.20;;;;;;5075736;28;20365;-56
2022/08/24 09:26:30;;;;;;;2.25;1.48;;;42.00;42.10;;;;;;5067826;28;20100;-56
2022/08/24 09:29:06;;;;;;;3.15;1.85;;;42.50;41.40;;;;;;5068191;28;20021;-56
2022/08/24 09:31:52;;;;;;;4.43;1.80;;;42.60;41.00;;;;;;5065484;28;20048;-57
2022/08/24 09:34:45;;;;;;;4.55;2.13;;;42.10;41.20;;;;;;5074781;28;20162;-56
2022/08/24 09:37:40;;;;;;;3.75;2.60;;;42.70;40.60;;;;;;5087985;28;20410;-56
2022/08/24 09:40:33;;;;;;;10.80;8.10;;;41.80;41.60;;;;;;5089279;28;20024;-58
2022/08/24 09:43:07;;;;;;;24.55;22.08;;;42.50;41.20;;;;;;5074777;28;20042;-56
2022/08/24 09:45:51;;;;;;;7.95;2.60;;;42.60;40.40;;;;;;5070781;28;20156;-56
2022/08/24 09:48:44;;;;;;;9.30;2.65;;;41.80;41.00;;;;;;5071835;28;20035;-56
2022/08/24 09:51:31;;;;;;;15.55;2.80;;;41.90;40.60;;;;;;5071578;28;20035;-56
2022/08/24 09:54:28;;;;;;;8.00;2.53;;;41.90;41.10;;;;;;5071789;28;20151;-56
2022/08/24 09:57:13;;;;;;;8.02;2.53;;;42.20;40.00;;;;;;5071829;28;20025;-57
2022/08/24 09:59:54;;;;;;;3.53;1.88;;;42.70;40.90;;;;;;5071699;28;20369;-56
2022/08/24 10:02:35;;;;;;;4.85;1.90;;;42.50;39.10;;;;;;5069115;28;20016;-57
2022/08/24 10:05:23;;;;;;;7.28;2.40;;;41.90;39.00;;;;;;5075210;28;20472;-56
2022/08/24 10:08:22;;;;;;;5.45;2.20;;;42.50;38.90;;;;;;5051917;28;20029;-56
2022/08/24 10:11:08;;;;;;;5.20;1.80;;;42.60;39.10;;;;;;5051070;28;20025;-56
2022/08/24 10:13:36;;;;;;;3.15;1.70;;;42.90;39.50;;;;;;5070230;28;20063;-57
2022/08/24 10:16:14;;;;;;;;;;;43.00;39.00;;;;;;5087498;28;20031;-56
2022/08/24 10:18:56;;;;;;;5.07;1.80;;;42.40;39.00;;;;;;5092246;28;19912;-57
2022/08/24 10:22:13;;;;;;;7.50;2.00;;;43.00;38.70;;;;;;5089849;28;20024;-57
2022/08/24 10:24:50;;;;;;;3.17;1.60;;;42.80;38.90;;;;;;5048313;28;20036;-56
2022/08/24 10:27:41;;;;;;;5.18;1.67;;;43.50;38.50;;;;;;5086163;28;20036;-56
2022/08/24 10:30:34;;;;;;;3.58;1.83;;;43.60;37.90;;;;;;5090164;28;20142;-57
2022/08/24 10:33:20;;;;;;;3.55;1.90;;;42.90;37.00;;;;;;5074525;28;20472;-56
2022/08/24 10:36:09;;;;;;;5.53;1.63;;;43.00;37.40;;;;;;5050831;28;20028;-56
2022/08/24 10:41:43;;;;;;;1.60;1.42;;;42.60;37.60;;;;;;5070369;28;20050;-57
2022/08/24 10:44:29;;;;;;;3.08;1.55;;;42.60;36.90;;;;;;5087373;28;20429;-57
2022/08/24 10:47:00;;;;;;;6.47;1.92;;;42.50;37.50;;;;;;5080068;28;20537;-57
2022/08/24 10:50:03;;;;;;;6.97;2.35;;;43.10;36.20;;;;;;5089321;28;20399;-57
2022/08/24 10:53:03;;;;;;;4.25;1.90;;;41.20;38.40;;;;;;5090455;28;20103;-57
2022/08/24 10:55:31;;;;;;;3.10;1.80;;;42.10;37.30;;;;;;5085556;28;20017;-59
2022/08/24 10:58:33;;;;;;;3.33;1.83;;;42.40;37.20;;;;;;5082044;28;20074;-56
2022/08/24 11:01:22;;;;;;;2.65;1.58;;;43.30;36.20;;;;;;5082773;28;20020;-57
2022/08/24 11:03:58;;;;;;;1.98;1.65;;;43.70;35.70;;;;;;5071967;28;20115;-56
2022/08/24 11:06:29;;;;;;;3.88;1.70;;;42.20;36.30;;;;;;5067685;28;20357;-57
2022/08/24 11:09:00;;;;;;;2.50;1.60;;;42.90;35.90;;;;;;5081877;28;20084;-57
2022/08/24 11:11:41;;;;;;;3.95;2.15;;;43.30;36.00;;;;;;5088390;28;20108;-56
2022/08/24 11:14:09;;;;;;;154.45;138.70;;;42.10;36.00;;;;;;5081323;28;20487;-56
2022/08/24 11:16:40;;;;;;;17.92;16.02;;;42.80;36.70;;;;;;5086446;28;20495;-56
2022/08/24 11:19:10;;;;;;;3.30;1.90;;;43.10;36.20;;;;;;5078170;28;20143;-57
2022/08/24 11:21:42;;;;;;;2.53;1.70;;;42.60;36.40;;;;;;5049783;28;20021;-56
2022/08/24 11:24:16;;;;;;;3.08;1.65;;;42.70;36.50;;;;;;5057081;28;20016;-57
2022/08/24 11:26:55;;;;;;;4.55;1.88;;;42.50;38.00;;;;;;5073146;28;20042;-56
2022/08/24 11:29:26;;;;;;;3.25;1.70;;;41.90;37.20;;;;;;5077085;28;20181;-57
2022/08/24 11:31:51;;;;;;;3.70;1.95;;;42.10;37.20;;;;;;5070204;28;20033;-56
2022/08/24 11:34:34;;;;;;;3.33;1.75;;;41.20;38.00;;;;;;5069112;28;20032;-56
2022/08/24 11:37:00;;;;;;;3.58;2.03;;;41.70;37.90;;;;;;5067877;28;20017;-57
2022/08/24 11:39:34;;;;;;;3.28;1.98;;;41.60;38.20;;;;;;5067400;28;20048;-57
2022/08/24 11:42:15;;;;;;;7.65;2.25;;;41.40;38.70;;;;;;5072379;28;20042;-57
2022/08/24 11:44:53;;;;;;;2.42;1.60;;;41.60;38.40;;;;;;5068324;28;20024;-56
2022/08/24 11:47:41;;;;;;;5.00;2.08;;;42.30;37.60;;;;;;5076204;28;20078;-57
2022/08/24 11:50:22;;;;;;;6.60;1.98;;;42.60;37.30;;;;;;5090104;28;20471;-56
2022/08/24 11:53:01;;;;;;;2.75;1.80;;;42.30;37.60;;;;;;5079929;28;20039;-56
2022/08/24 11:55:30;;;;;;;5.72;2.10;;;41.60;38.70;;;;;;5081394;28;20017;-57
2022/08/24 11:58:06;;;;;;;5.15;2.42;;;41.20;38.50;;;;;;5068833;28;20039;-56
2022/08/24 12:00:56;;;;;;;3.60;2.30;;;41.30;38.30;;;;;;5068835;28;20115;-57
2022/08/24 12:03:42;;;;;;;2.53;1.80;;;41.20;38.40;;;;;;5067450;28;20032;-56
2022/08/24 12:06:32;;;;;;;6.18;2.13;;;41.20;37.30;;;;;;5073507;28;20111;-57
2022/08/24 12:09:22;;;;;;;4.40;2.00;;;41.40;38.20;;;;;;5067980;28;20024;-56
2022/08/24 12:11:53;;;;;;;6.07;2.30;;;41.20;38.20;;;;;;5065112;28;20086;-56
2022/08/24 12:14:26;;;;;;;4.05;2.45;;;40.60;39.80;;;;;;5068345;28;20024;-56
2022/08/24 12:17:13;;;;;;;4.65;2.33;;;40.00;39.80;;;;;;5068831;28;20275;-57
2022/08/24 12:19:51;;;;;;;7.05;2.22;;;39.80;39.40;;;;;;5067362;28;20483;-57
2022/08/24 12:22:19;;;;;;;5.55;2.47;;;38.90;40.60;;;;;;5068573;28;20031;-56
2022/08/24 12:24:49;;;;;;;5.63;2.65;;;38.30;41.90;;;;;;5067092;28;20035;-56
2022/08/24 12:27:25;;;;;;;5.57;2.63;;;37.80;42.40;;;;;;5070004;28;20021;-56
2022/08/24 12:30:02;;;;;;;3.17;2.22;;;37.60;41.80;;;;;;5068866;28;20025;-56
2022/08/24 12:32:45;;;;;;;5.40;2.40;;;37.40;41.60;;;;;;5068008;28;20502;-55
2022/08/24 12:35:17;;;;;;;3.17;2.20;;;37.20;42.10;;;;;;5062774;28;20100;-55
2022/08/24 12:38:11;;;;;;;2.90;2.22;;;36.90;42.20;;;;;;5080580;28;20475;-56
2022/08/24 12:40:51;;;;;;;5.47;2.80;;;36.30;43.10;;;;;;5076335;28;20480;-55
2022/08/24 12:43:24;;;;;;;3.28;2.80;;;35.90;44.20;;;;;;5070088;28;20021;-57
2022/08/24 12:45:50;;;;;;;3.88;2.92;;;35.70;44.60;;;;;;5068153;28;20069;-55
2022/08/24 12:48:26;;;;;;;5.13;2.47;;;35.60;44.70;;;;;;5063777;28;20013;-56
2022/08/24 12:51:17;;;;;;;7.60;2.22;;;35.70;45.10;;;;;;5073558;28;20020;-55
2022/08/24 12:54:13;;;;;;;5.38;2.38;;;35.50;44.30;;;;;;5067627;28;20024;-56
2022/08/24 12:57:00;;;;;;;4.15;2.38;;;35.10;45.50;;;;;;5058460;28;20035;-57
2022/08/24 12:59:32;;;;;;;4.22;2.40;;;35.20;44.40;;;;;;5068525;28;20032;-56
2022/08/24 13:02:03;;;;;;;4.25;2.47;;;35.10;44.10;;;;;;5067561;28;20078;-56
2022/08/24 13:04:37;;;;;;;11.48;2.53;;;34.90;44.60;;;;;;5068097;28;20025;-56
2022/08/24 13:07:18;;;;;;;6.68;3.13;;;34.90;44.20;;;;;;5080124;28;20031;-55
2022/08/24 13:10:26;;;;;;;4.90;2.58;;;34.90;44.60;;;;;;5087017;28;20024;-55
2022/08/24 13:13:09;;;;;;;7.03;2.20;;;35.00;44.50;;;;;;5058306;28;20044;-55
2022/08/24 13:15:34;;;;;;;4.40;2.63;;;35.10;46.00;;;;;;5068491;28;20027;-55
2022/08/24 13:18:05;;;;;;;5.47;2.35;;;34.90;43.90;;;;;;5068335;28;20033;-55
2022/08/24 13:20:37;;;;;;;3.88;2.88;;;34.80;44.30;;;;;;5068078;28;20037;-55